Aegean Tiffany — SVAE9 — position and weather

sailwx.info

Track history (hours):
 
Tides and Currents Weather Stations Pressure Air Temp Water Temp Dewpoint Dewpoint Depression Visibility Wind Speed Wind Dir Waves Ship Positions

Aegean Tiffany

Last reported at 2014-Nov-27 11:14 UTC. Time now 2014-Nov-28 08:34 UTC.
Position N 38°02' E 023°32'.

Length 80 m; draft 4.5 m.

Type: Tanker. MMSI: 240870000.

Date/timePositionNaut miles runAvg speedWind from/ knotsBaromVisibWave heightAir tempDewpointWater temp
2014-Nov-27 11:14N 38°02' E 023°32'0 0.0
2014-Nov-26 15:28N 38°02' E 023°32'3 3.2
2014-Nov-26 14:33N 38°02' E 023°36'0 0.0
2014-Nov-26 13:33N 38°02' E 023°36'0 0.0
2014-Nov-26 12:33N 38°02' E 023°36'0 0.0
2014-Nov-26 11:33N 38°02' E 023°36'0 0.0
2014-Nov-26 10:33N 38°02' E 023°36'0 0.0
2014-Nov-26 09:33N 38°02' E 023°36'0 0.0
2014-Nov-26 08:33N 38°02' E 023°36'0 0.0
2014-Nov-26 07:33N 38°02' E 023°36'0 0.0
2014-Nov-26 06:33N 38°02' E 023°36'0 0.0
2014-Nov-26 05:33N 38°02' E 023°36'1 0.6
2014-Nov-26 04:33N 38°02' E 023°35'2 2.3
2014-Nov-26 03:33N 38°02' E 023°32'0 0.0
2014-Nov-25 14:10N 38°02' E 023°32'1 2.2
2014-Nov-25 13:33N 38°01' E 023°33'4 4.1
2014-Nov-25 12:33N 37°57' E 023°34'0 0.0
2014-Nov-25 11:33N 37°57' E 023°34'3 2.7
2014-Nov-25 10:33N 37°59' E 023°33'3 2.4
2014-Nov-25 09:22N 38°02' E 023°32'3 3.1
2014-Nov-25 08:33N 38°01' E 023°29'6 6.4
2014-Nov-25 07:33N 37°57' E 023°23'8 7.7
2014-Nov-25 06:33N 37°55' E 023°13'9 8.2
2014-Nov-25 05:25N 37°55' E 023°02'  
2014-Nov-17 22:14N 37°54' E 023°06'5 7.9
2014-Nov-17 21:33N 37°55' E 023°13'8 8.0
2014-Nov-17 20:33N 37°57' E 023°22'6 6.3
2014-Nov-17 19:32N 38°01' E 023°29'3 3.0
2014-Nov-17 18:33N 38°02' E 023°32'0 0.0
2014-Nov-17 17:33N 38°02' E 023°32'0 0.0
2014-Nov-17 16:33N 38°02' E 023°32'0 0.0
2014-Nov-17 15:33N 38°02' E 023°32'0 0.0
2014-Nov-17 14:33N 38°02' E 023°32'0 0.0
2014-Nov-17 13:33N 38°02' E 023°32'0 0.0
2014-Nov-17 12:33N 38°02' E 023°32'3 3.0
2014-Nov-17 11:33N 38°02' E 023°36'  
Track history (hours):
 
Tides and Currents Weather Stations Pressure Air Temp Water Temp Dewpoint Dewpoint Depression Visibility Wind Speed Wind Dir Waves Ship Positions

Aegean Tiffany

Last reported at 2014-Nov-27 11:14 UTC. Time now 2014-Nov-28 08:34 UTC.
Position N 38°02' E 023°32'.

Length 80 m; draft 4.5 m.

Type: Tanker. MMSI: 240870000.

Date/timePositionNaut miles runAvg speedWind from/ knotsBaromVisibWave heightAir tempDewpointWater temp
2014-Nov-27 11:14N 38°02' E 023°32'0 0.0
2014-Nov-26 15:28N 38°02' E 023°32'3 3.2
2014-Nov-26 14:33N 38°02' E 023°36'0 0.0
2014-Nov-26 13:33N 38°02' E 023°36'0 0.0
2014-Nov-26 12:33N 38°02' E 023°36'0 0.0
2014-Nov-26 11:33N 38°02' E 023°36'0 0.0
2014-Nov-26 10:33N 38°02' E 023°36'0 0.0
2014-Nov-26 09:33N 38°02' E 023°36'0 0.0
2014-Nov-26 08:33N 38°02' E 023°36'0 0.0
2014-Nov-26 07:33N 38°02' E 023°36'0 0.0
2014-Nov-26 06:33N 38°02' E 023°36'0 0.0
2014-Nov-26 05:33N 38°02' E 023°36'1 0.6
2014-Nov-26 04:33N 38°02' E 023°35'2 2.3
2014-Nov-26 03:33N 38°02' E 023°32'0 0.0
2014-Nov-25 14:10N 38°02' E 023°32'1 2.2
2014-Nov-25 13:33N 38°01' E 023°33'4 4.1
2014-Nov-25 12:33N 37°57' E 023°34'0 0.0
2014-Nov-25 11:33N 37°57' E 023°34'3 2.7
2014-Nov-25 10:33N 37°59' E 023°33'3 2.4
2014-Nov-25 09:22N 38°02' E 023°32'3 3.1
2014-Nov-25 08:33N 38°01' E 023°29'6 6.4
2014-Nov-25 07:33N 37°57' E 023°23'8 7.7
2014-Nov-25 06:33N 37°55' E 023°13'9 8.2
2014-Nov-25 05:25N 37°55' E 023°02'  
2014-Nov-17 22:14N 37°54' E 023°06'5 7.9
2014-Nov-17 21:33N 37°55' E 023°13'8 8.0
2014-Nov-17 20:33N 37°57' E 023°22'6 6.3
2014-Nov-17 19:32N 38°01' E 023°29'3 3.0
2014-Nov-17 18:33N 38°02' E 023°32'0 0.0
2014-Nov-17 17:33N 38°02' E 023°32'0 0.0
2014-Nov-17 16:33N 38°02' E 023°32'0 0.0
2014-Nov-17 15:33N 38°02' E 023°32'0 0.0
2014-Nov-17 14:33N 38°02' E 023°32'0 0.0
2014-Nov-17 13:33N 38°02' E 023°32'0 0.0
2014-Nov-17 12:33N 38°02' E 023°32'3 3.0
2014-Nov-17 11:33N 38°02' E 023°36'  

Dump ship's entire track history